createdAt,value
2023-04-14T00:01:38.990Z,20.10
2023-04-14T00:04:13.861Z,25.70
2023-04-14T00:06:42.262Z,26.10
2023-04-14T00:09:10.646Z,26.23
2023-04-14T00:11:39.017Z,27.87
2023-04-14T00:14:07.172Z,26.87
2023-04-14T00:16:36.980Z,26.97
2023-04-14T00:19:05.197Z,23.47
2023-04-14T00:21:33.362Z,29.90
2023-04-14T00:24:01.496Z,30.33
2023-04-14T00:26:29.741Z,24.07
2023-04-14T00:28:57.956Z,30.10
2023-04-14T00:31:26.414Z,28.77
2023-04-14T00:33:56.161Z,25.90
2023-04-14T00:36:24.586Z,27.20
2023-04-14T00:38:53.667Z,25.97
2023-04-14T00:41:21.831Z,29.47
2023-04-14T00:43:53.667Z,30.97
2023-04-14T00:46:22.876Z,26.80
2023-04-14T00:48:51.480Z,21.90
2023-04-14T00:51:21.112Z,29.03
2023-04-14T00:53:50.469Z,25.33
2023-04-14T00:56:18.730Z,22.30
2023-04-14T00:58:47.397Z,23.93
2023-04-14T01:01:16.768Z,20.80
2023-04-14T01:03:45.769Z,24.70
2023-04-14T01:06:14.063Z,21.43
2023-04-14T01:08:43.711Z,23.57
2023-04-14T01:11:22.903Z,19.50
2023-04-14T01:13:57.608Z,25.03
2023-04-14T01:16:31.300Z,21.93
2023-04-14T01:19:06.499Z,20.27
2023-04-14T01:21:39.860Z,21.30
2023-04-14T01:24:30.913Z,23.23
2023-04-14T01:27:06.992Z,21.33
2023-04-14T01:29:55.989Z,21.97
2023-04-14T01:32:28.335Z,19.83
2023-04-14T01:34:58.981Z,22.57
2023-04-14T01:37:31.369Z,20.80
2023-04-14T01:40:05.792Z,18.97
2023-04-14T01:42:37.639Z,19.77
2023-04-14T01:45:10.893Z,24.10
2023-04-14T01:47:43.736Z,26.07
2023-04-14T01:50:13.427Z,22.43
2023-04-14T01:52:44.097Z,26.00
2023-04-14T01:55:12.854Z,20.27
2023-04-14T01:57:45.209Z,19.23
2023-04-14T02:00:15.216Z,20.63
2023-04-14T02:02:46.608Z,24.87
2023-04-14T02:05:18.261Z,17.70
2023-04-14T02:07:48.663Z,19.03
2023-04-14T02:10:19.444Z,25.33
2023-04-14T02:12:48.991Z,22.87
2023-04-14T02:15:19.856Z,18.70
2023-04-14T02:17:51.567Z,25.13
2023-04-14T02:20:21.835Z,21.83
2023-04-14T02:22:49.909Z,23.37
2023-04-14T02:25:18.094Z,25.47
2023-04-14T02:27:51.092Z,24.37
2023-04-14T02:30:23.633Z,22.57
2023-04-14T02:32:58.454Z,22.57
2023-04-14T02:35:29.498Z,20.73
2023-04-14T02:38:06.525Z,18.47
2023-04-14T02:40:39.788Z,25.40
2023-04-14T02:43:13.671Z,20.03
2023-04-14T02:45:44.177Z,22.33
2023-04-14T02:48:17.325Z,20.03
2023-04-14T02:50:49.544Z,21.27
2023-04-14T02:53:26.256Z,19.83
2023-04-14T02:56:04.656Z,22.17
2023-04-14T02:58:37.725Z,21.23
2023-04-14T03:01:06.672Z,22.23
2023-04-14T03:03:37.757Z,23.07
2023-04-14T03:06:09.834Z,21.23
2023-04-14T03:08:38.845Z,19.90
2023-04-14T03:11:08.183Z,22.43
2023-04-14T03:13:39.091Z,22.27
2023-04-14T03:16:09.612Z,23.00
2023-04-14T03:18:42.089Z,21.97
2023-04-14T03:21:10.456Z,21.53
2023-04-14T03:23:40.491Z,21.80
2023-04-14T03:26:11.762Z,32.07
2023-04-14T03:28:42.710Z,18.80
2023-04-14T03:31:13.364Z,20.03
2023-04-14T03:33:57.263Z,23.23
2023-04-14T03:36:33.026Z,23.00
2023-04-14T03:39:03.422Z,20.90
2023-04-14T03:41:37.834Z,24.47
2023-04-14T03:44:15.544Z,20.03
2023-04-14T03:46:46.140Z,24.93
2023-04-14T03:49:20.162Z,21.37
2023-04-14T03:51:53.619Z,23.80
2023-04-14T03:54:24.082Z,21.60
2023-04-14T03:56:56.144Z,22.33
2023-04-14T03:59:27.708Z,22.30
2023-04-14T04:01:57.201Z,27.13
2023-04-14T04:04:27.492Z,23.23
2023-04-14T04:06:55.886Z,23.13
2023-04-14T04:09:24.917Z,19.23
2023-04-14T04:11:53.768Z,25.20
2023-04-14T04:14:24.787Z,25.83
2023-04-14T04:16:56.004Z,25.27
2023-04-14T04:19:26.958Z,25.57
2023-04-14T04:21:58.407Z,23.10
2023-04-14T04:24:30.307Z,42.90
2023-04-14T04:26:59.804Z,38.47
2023-04-14T04:29:28.324Z,42.60
2023-04-14T04:31:57.044Z,37.83
2023-04-14T04:34:27.852Z,34.90
2023-04-14T04:36:56.871Z,27.30
2023-04-14T04:39:25.915Z,29.57
2023-04-14T04:42:03.225Z,26.40
2023-04-14T04:44:33.179Z,22.07
2023-04-14T04:47:02.546Z,25.27
2023-04-14T04:49:32.030Z,21.47
2023-04-14T04:52:04.908Z,20.83
2023-04-14T04:54:33.013Z,23.63
2023-04-14T04:57:01.049Z,21.70
2023-04-14T04:59:29.161Z,25.30
2023-04-14T05:01:57.349Z,25.70
2023-04-14T05:04:25.589Z,24.80
2023-04-14T05:06:55.074Z,25.67
2023-04-14T05:09:23.131Z,21.17
2023-04-14T05:11:51.215Z,22.47
2023-04-14T05:14:19.254Z,23.67
2023-04-14T05:16:47.270Z,26.27
2023-04-14T05:19:15.645Z,21.50
2023-04-14T05:21:43.667Z,25.77
2023-04-14T05:24:13.092Z,23.37
2023-04-14T05:29:12.521Z,17.93
2023-04-14T05:31:40.864Z,20.20
2023-04-14T05:34:10.049Z,20.87
2023-04-14T05:36:38.073Z,29.83
2023-04-14T05:39:06.255Z,23.47
2023-04-14T05:41:35.725Z,21.13
2023-04-14T05:44:04.655Z,23.50
2023-04-14T05:46:33.353Z,22.97
2023-04-14T05:49:01.834Z,20.70
2023-04-14T05:51:30.386Z,28.60
2023-04-14T05:53:58.506Z,21.97
2023-04-14T05:56:26.897Z,26.20
2023-04-14T05:58:56.380Z,23.87
2023-04-14T06:01:24.424Z,23.80
2023-04-14T06:03:52.534Z,24.37
2023-04-14T06:06:20.886Z,27.73
2023-04-14T06:08:48.914Z,24.53
2023-04-14T06:11:16.984Z,28.23
2023-04-14T06:13:45.000Z,25.70
2023-04-14T06:16:14.404Z,29.73
2023-04-14T06:18:42.450Z,25.87
2023-04-14T06:21:11.204Z,27.13
2023-04-14T06:23:39.230Z,23.07
2023-04-14T06:26:07.391Z,25.03
2023-04-14T06:28:35.458Z,24.87
2023-04-14T06:31:03.966Z,23.83
2023-04-14T06:33:33.439Z,23.30
2023-04-14T06:36:02.586Z,22.77
2023-04-14T06:38:30.755Z,17.93
2023-04-14T06:40:58.964Z,21.27
2023-04-14T06:43:28.814Z,21.63
2023-04-14T06:45:57.193Z,24.03
2023-04-14T06:48:25.314Z,20.73
2023-04-14T06:50:56.681Z,18.65
2023-04-14T06:53:25.951Z,16.10
2023-04-14T06:56:00.529Z,18.00
2023-04-14T06:58:29.758Z,18.20
2023-04-14T07:00:58.397Z,14.93
2023-04-14T07:03:27.420Z,20.17
2023-04-14T07:06:03.907Z,16.27
2023-04-14T07:08:34.832Z,18.23
2023-04-14T07:11:04.781Z,16.27
2023-04-14T07:13:33.760Z,17.20
2023-04-14T07:16:02.272Z,14.73
2023-04-14T07:18:31.701Z,13.02
2023-04-14T07:21:01.832Z,14.50
2023-04-14T07:23:30.168Z,13.25
2023-04-14T07:25:59.672Z,13.85
2023-04-14T07:28:28.458Z,12.25
2023-04-14T07:30:56.818Z,17.42
2023-04-14T07:33:27.039Z,11.60
2023-04-14T07:36:02.777Z,14.10
2023-04-14T07:38:33.478Z,16.52
2023-04-14T07:41:04.701Z,10.68
2023-04-14T07:43:35.606Z,9.57
2023-04-14T07:46:05.435Z,15.60
2023-04-14T07:48:34.150Z,7.03
2023-04-14T07:51:03.077Z,12.80
2023-04-14T07:53:32.915Z,12.07
2023-04-14T07:56:01.566Z,17.63
2023-04-14T07:58:29.922Z,11.70
2023-04-14T08:00:58.411Z,9.52
2023-04-14T08:03:26.758Z,7.75
2023-04-14T08:05:54.965Z,11.63
2023-04-14T08:08:23.194Z,9.93
2023-04-14T08:10:52.723Z,10.50
2023-04-14T08:13:20.761Z,12.20
2023-04-14T08:15:48.867Z,12.30
2023-04-14T08:18:17.006Z,13.95
2023-04-14T08:20:45.444Z,10.07
2023-04-14T08:23:13.514Z,11.75
2023-04-14T08:25:42.283Z,9.90
2023-04-14T08:28:12.433Z,10.95
2023-04-14T08:30:41.425Z,12.00
2023-04-14T08:33:09.690Z,8.38
2023-04-14T08:35:42.469Z,12.38
2023-04-14T08:38:11.572Z,15.45
2023-04-14T08:40:41.552Z,11.85
2023-04-14T08:43:13.828Z,9.75
2023-04-14T08:45:44.697Z,8.73
2023-04-14T08:48:16.105Z,13.90
2023-04-14T08:50:49.323Z,16.67
2023-04-14T08:53:19.245Z,9.40
2023-04-14T08:55:47.923Z,12.95
2023-04-14T08:58:17.825Z,13.98
2023-04-14T09:00:46.306Z,17.40
2023-04-14T09:03:15.508Z,15.65
2023-04-14T09:05:44.761Z,13.50
2023-04-14T09:08:13.515Z,13.88
2023-04-14T09:10:42.797Z,13.90
2023-04-14T09:13:15.284Z,14.70
2023-04-14T09:15:45.117Z,13.05
2023-04-14T09:18:13.479Z,10.75
2023-04-14T09:20:42.140Z,17.83
2023-04-14T09:23:11.100Z,13.38
2023-04-14T09:25:40.517Z,10.88
2023-04-14T09:28:08.896Z,14.88
2023-04-14T09:30:37.476Z,13.27
2023-04-14T09:33:08.172Z,11.45
2023-04-14T09:35:54.397Z,13.48
2023-04-14T09:38:37.946Z,12.43
2023-04-14T09:41:07.096Z,16.48
2023-04-14T09:43:36.879Z,11.85
2023-04-14T09:46:07.073Z,14.00
2023-04-14T09:48:37.620Z,14.93
2023-04-14T09:51:09.898Z,19.40
2023-04-14T09:53:41.172Z,14.20
2023-04-14T09:56:11.110Z,13.98
2023-04-14T09:58:40.765Z,13.63
2023-04-14T10:01:13.614Z,11.80
2023-04-14T10:03:44.577Z,13.57
2023-04-14T10:06:17.253Z,15.88
2023-04-14T10:08:48.660Z,15.88
2023-04-14T10:11:18.965Z,15.40
2023-04-14T10:13:47.998Z,16.05
2023-04-14T10:16:16.988Z,18.33
2023-04-14T10:18:47.723Z,15.93
2023-04-14T10:21:17.583Z,16.92
2023-04-14T10:23:46.342Z,15.18
2023-04-14T10:26:15.012Z,14.80
2023-04-14T10:28:46.332Z,14.77
2023-04-14T10:31:20.411Z,16.02
2023-04-14T10:33:49.959Z,26.00
2023-04-14T10:36:25.488Z,12.82
2023-04-14T10:39:02.056Z,16.88
2023-04-14T10:41:46.093Z,17.38
2023-04-14T10:44:27.496Z,18.30
2023-04-14T10:46:56.694Z,18.25
2023-04-14T10:49:33.800Z,17.45
2023-04-14T10:52:03.607Z,15.68
2023-04-14T10:54:50.029Z,15.85
2023-04-14T10:57:20.664Z,16.17
2023-04-14T10:59:49.211Z,18.52
2023-04-14T11:02:25.159Z,15.77
2023-04-14T11:05:04.041Z,17.60
2023-04-14T11:07:33.460Z,19.95
2023-04-14T11:10:21.921Z,14.40
2023-04-14T11:12:57.481Z,15.18
2023-04-14T11:15:25.915Z,15.02
2023-04-14T11:17:55.185Z,15.05
2023-04-14T11:20:24.116Z,13.32
2023-04-14T11:22:54.147Z,15.05
2023-04-14T11:25:24.780Z,14.48
2023-04-14T11:27:54.730Z,13.57
2023-04-14T11:30:23.273Z,16.60
2023-04-14T11:32:53.378Z,16.23
2023-04-14T11:35:24.089Z,18.02
2023-04-14T11:37:54.916Z,15.55
2023-04-14T11:40:24.066Z,16.35
2023-04-14T11:42:58.475Z,19.38
2023-04-14T11:45:29.854Z,15.68
2023-04-14T11:47:59.924Z,16.77
2023-04-14T11:50:30.479Z,15.60
2023-04-14T11:52:59.491Z,20.63
2023-04-14T11:55:28.140Z,16.33
2023-04-14T11:57:58.162Z,14.95
2023-04-14T12:00:28.047Z,15.90
2023-04-14T12:02:56.446Z,18.00
2023-04-14T12:05:31.395Z,15.38
2023-04-14T12:08:00.327Z,14.63
2023-04-14T12:10:28.738Z,17.35
2023-04-14T12:13:02.716Z,13.00
2023-04-14T12:15:31.565Z,13.40
2023-04-14T12:18:00.355Z,16.83
2023-04-14T12:20:30.369Z,14.80
2023-04-14T12:23:03.264Z,14.88
2023-04-14T12:25:33.929Z,16.02
2023-04-14T12:28:06.300Z,15.57
2023-04-14T12:30:34.666Z,16.73
2023-04-14T12:33:09.711Z,15.60
2023-04-14T12:35:37.861Z,18.40
2023-04-14T12:38:10.886Z,15.10
2023-04-14T12:40:40.394Z,15.82
2023-04-14T12:43:09.915Z,16.25
2023-04-14T12:45:42.368Z,15.30
2023-04-14T12:48:10.633Z,13.00
2023-04-14T12:50:38.722Z,14.55
2023-04-14T12:53:26.138Z,15.65
2023-04-14T12:56:10.852Z,13.32
2023-04-14T12:58:41.867Z,12.85
2023-04-14T13:01:11.145Z,16.80
2023-04-14T13:03:41.078Z,21.30
2023-04-14T13:06:09.886Z,14.35
2023-04-14T13:08:37.887Z,17.90
2023-04-14T13:11:06.227Z,14.85
2023-04-14T13:13:34.256Z,14.57
2023-04-14T13:16:14.721Z,16.65
2023-04-14T13:18:44.818Z,12.98
2023-04-14T13:21:12.963Z,16.05
2023-04-14T13:23:41.255Z,14.30
2023-04-14T13:26:09.443Z,14.50
2023-04-14T13:28:37.791Z,12.57
2023-04-14T13:31:07.557Z,17.45
2023-04-14T13:33:35.662Z,12.98
2023-04-14T13:36:04.017Z,12.68
2023-04-14T13:38:32.291Z,14.70
2023-04-14T13:41:00.437Z,15.63
2023-04-14T13:43:28.504Z,12.15
2023-04-14T13:45:58.589Z,11.60
2023-04-14T13:48:28.447Z,10.52
2023-04-14T13:50:56.634Z,14.25
2023-04-14T13:53:24.692Z,15.32
2023-04-14T13:55:52.787Z,13.43
2023-04-14T13:58:21.367Z,12.30
2023-04-14T14:00:49.452Z,9.57
2023-04-14T14:03:17.671Z,10.20
2023-04-14T14:05:47.284Z,11.18
2023-04-14T14:08:15.887Z,11.23
2023-04-14T14:10:44.418Z,12.88
2023-04-14T14:13:12.488Z,10.13
2023-04-14T14:15:40.617Z,9.98
2023-04-14T14:18:09.228Z,9.77
2023-04-14T14:20:37.271Z,15.88
2023-04-14T14:23:06.945Z,11.70
2023-04-14T14:25:35.099Z,13.15
2023-04-14T14:28:03.872Z,9.18
2023-04-14T14:30:32.070Z,13.68
2023-04-14T14:33:00.120Z,10.50
2023-04-14T14:35:28.220Z,10.90
2023-04-14T14:37:56.280Z,11.15
2023-04-14T14:40:25.688Z,10.07
2023-04-14T14:42:53.688Z,19.48
2023-04-14T14:45:26.150Z,9.05
2023-04-14T14:47:59.453Z,10.45
2023-04-14T14:50:27.656Z,9.30
2023-04-14T14:52:56.888Z,9.48
2023-04-14T14:55:27.338Z,16.80
2023-04-14T14:57:55.403Z,14.77
2023-04-14T15:00:23.407Z,6.57
2023-04-14T15:02:51.570Z,7.00
2023-04-14T15:05:19.771Z,7.90
2023-04-14T15:07:47.790Z,10.80
2023-04-14T15:10:16.222Z,7.57
2023-04-14T15:12:45.787Z,7.20
2023-04-14T15:15:14.061Z,9.13
2023-04-14T15:17:42.101Z,8.18
2023-04-14T15:20:11.229Z,7.90
2023-04-14T15:22:39.302Z,11.00
2023-04-14T15:25:09.196Z,7.13
2023-04-14T15:27:37.558Z,9.70
2023-04-14T15:30:08.589Z,8.95
2023-04-14T15:32:36.719Z,6.60
2023-04-14T15:35:05.027Z,12.13
2023-04-14T15:37:33.045Z,45.28
2023-04-14T15:40:01.671Z,23.67
2023-04-14T15:42:29.660Z,9.23
2023-04-14T15:44:57.694Z,12.73
2023-04-14T15:47:27.121Z,8.35
2023-04-14T15:50:09.540Z,13.13
2023-04-14T15:52:38.993Z,8.70
2023-04-14T15:55:08.541Z,52.35
2023-04-14T15:57:37.168Z,41.03
2023-04-14T16:00:07.626Z,7.38
2023-04-14T16:02:45.860Z,4.82
2023-04-14T16:05:14.343Z,1.05
2023-04-14T16:07:43.714Z,8.80
2023-04-14T16:10:12.266Z,0.50
2023-04-14T16:12:40.755Z,0.00
2023-04-14T16:15:09.564Z,0.88
2023-04-14T16:17:37.654Z,0.35
2023-04-14T16:20:08.192Z,0.30
2023-04-14T16:22:37.028Z,0.20
2023-04-14T16:25:05.823Z,0.20
2023-04-14T16:27:34.057Z,0.30
2023-04-14T16:30:02.759Z,0.05
2023-04-14T16:32:31.187Z,5.15
2023-04-14T16:34:59.197Z,1.15
2023-04-14T16:37:28.892Z,0.30
2023-04-14T16:39:57.531Z,0.10
2023-04-14T16:42:26.337Z,0.20
2023-04-14T16:44:54.657Z,0.68
2023-04-14T16:47:23.649Z,0.20
2023-04-14T16:49:51.884Z,7.22
2023-04-14T16:52:20.048Z,0.20
2023-04-14T16:54:49.483Z,3.08
2023-04-14T16:57:17.570Z,0.10
2023-04-14T16:59:46.239Z,1.00
2023-04-14T17:02:14.459Z,0.10
2023-04-14T17:04:42.855Z,0.75
2023-04-14T17:07:11.221Z,0.10
2023-04-14T17:09:39.234Z,0.00
2023-04-14T17:12:08.723Z,0.15
2023-04-14T17:14:37.256Z,0.00
2023-04-14T17:17:05.481Z,0.35
2023-04-14T17:19:34.240Z,0.30
2023-04-14T17:22:02.313Z,0.57
2023-04-14T17:24:30.962Z,0.82
2023-04-14T17:27:00.516Z,2.63
2023-04-14T17:29:30.016Z,0.20
2023-04-14T17:31:58.143Z,0.22
2023-04-14T17:34:26.315Z,0.10
2023-04-14T17:36:55.976Z,1.35
2023-04-14T17:39:26.801Z,0.00
2023-04-14T17:41:56.237Z,0.05
2023-04-14T17:44:31.906Z,0.20
2023-04-14T17:47:01.063Z,0.22
2023-04-14T17:49:29.435Z,0.25
2023-04-14T17:51:58.069Z,0.10
2023-04-14T17:54:27.246Z,0.17
2023-04-14T17:56:55.304Z,0.28
2023-04-14T17:59:23.524Z,0.10
2023-04-14T18:01:53.456Z,0.45
2023-04-14T18:04:21.611Z,0.10
2023-04-14T18:06:50.143Z,0.20
2023-04-14T18:09:18.193Z,0.88
2023-04-14T18:11:46.338Z,0.77
2023-04-14T18:14:14.442Z,0.10
2023-04-14T18:16:42.527Z,0.73
2023-04-14T18:19:11.950Z,0.85
2023-04-14T18:21:41.141Z,15.20
2023-04-14T18:26:41.294Z,12.35
2023-04-14T18:29:09.358Z,14.45
2023-04-14T18:31:38.066Z,14.68
2023-04-14T18:34:09.308Z,11.68
2023-04-14T18:36:38.796Z,12.10
2023-04-14T18:39:07.916Z,8.90
2023-04-14T18:41:36.217Z,11.68
2023-04-14T18:44:04.473Z,14.68
2023-04-14T18:46:32.614Z,12.73
2023-04-14T18:49:00.946Z,12.88
2023-04-14T18:51:29.180Z,11.90
2023-04-14T18:53:58.749Z,11.98
2023-04-14T18:56:28.057Z,12.50
2023-04-14T18:58:57.498Z,13.43
2023-04-14T19:01:25.712Z,12.95
2023-04-14T19:03:55.123Z,13.45
2023-04-14T19:06:23.787Z,13.65
2023-04-14T19:08:51.816Z,12.63
2023-04-14T19:11:21.706Z,15.48
2023-04-14T19:13:49.754Z,17.50
2023-04-14T19:16:17.867Z,14.73
2023-04-14T19:18:46.121Z,14.13
2023-04-14T19:21:14.174Z,11.02
2023-04-14T19:23:42.391Z,13.45
2023-04-14T19:26:11.601Z,13.63
2023-04-14T19:28:42.480Z,13.85
2023-04-14T19:31:10.762Z,16.05
2023-04-14T19:33:41.677Z,13.93
2023-04-14T19:36:14.215Z,14.02
2023-04-14T19:38:42.633Z,16.83
2023-04-14T19:41:10.732Z,12.57
2023-04-14T19:43:40.238Z,15.90
2023-04-14T19:46:09.595Z,13.75
2023-04-14T19:48:37.667Z,13.35
2023-04-14T19:51:05.740Z,16.27
2023-04-14T19:53:34.469Z,14.18
2023-04-14T19:56:05.475Z,15.10
2023-04-14T19:58:33.797Z,17.20
2023-04-14T20:01:03.244Z,15.73
2023-04-14T20:03:33.850Z,17.73
2023-04-14T20:06:03.212Z,17.02
2023-04-14T20:08:32.317Z,14.25
2023-04-14T20:11:00.406Z,16.00
2023-04-14T20:13:31.243Z,15.40
2023-04-14T20:15:59.303Z,14.52
2023-04-14T20:18:28.986Z,16.42
2023-04-14T20:20:57.231Z,16.88
2023-04-14T20:23:25.654Z,13.32
2023-04-14T20:25:54.723Z,13.13
2023-04-14T20:28:25.739Z,17.85
2023-04-14T20:31:01.309Z,13.15
2023-04-14T20:33:31.023Z,15.70
2023-04-14T20:36:01.760Z,15.93
2023-04-14T20:38:30.235Z,15.82
2023-04-14T20:40:58.446Z,15.65
2023-04-14T20:43:32.548Z,18.55
2023-04-14T20:46:00.675Z,16.30
2023-04-14T20:48:30.725Z,16.98
2023-04-14T20:50:59.801Z,14.18
2023-04-14T20:53:30.024Z,13.20
2023-04-14T20:55:58.218Z,16.02
2023-04-14T20:58:26.292Z,15.50
2023-04-14T21:00:54.367Z,14.73
2023-04-14T21:03:23.914Z,15.73
2023-04-14T21:05:53.644Z,13.48
2023-04-14T21:08:22.272Z,15.68
2023-04-14T21:11:16.157Z,14.80
2023-04-14T21:15:27.170Z,17.60
2023-04-14T21:16:27.576Z,15.00
2023-04-14T21:18:55.718Z,16.88
2023-04-14T21:21:25.250Z,17.60
2023-04-14T21:23:53.279Z,18.58
2023-04-14T21:26:21.965Z,16.58
2023-04-14T21:28:50.065Z,17.60
2023-04-14T21:31:18.479Z,16.95
2023-04-14T21:33:47.093Z,20.40
2023-04-14T21:36:15.755Z,14.82
2023-04-14T21:38:45.211Z,18.27
2023-04-14T21:41:13.327Z,14.75
2023-04-14T21:43:41.767Z,15.93
2023-04-14T21:46:10.089Z,18.73
2023-04-14T21:48:38.256Z,18.75
2023-04-14T21:51:06.408Z,13.07
2023-04-14T21:53:34.638Z,16.70
2023-04-14T21:56:09.948Z,14.25
2023-04-14T21:58:39.680Z,16.73
2023-04-14T22:01:09.632Z,16.95
2023-04-14T22:03:40.405Z,16.25
2023-04-14T22:06:10.082Z,17.05
2023-04-14T22:08:39.178Z,15.52
2023-04-14T22:11:08.807Z,16.98
2023-04-14T22:13:36.912Z,22.15
2023-04-14T22:16:05.239Z,15.23
2023-04-14T22:18:33.371Z,16.85
2023-04-14T22:21:01.541Z,16.70
2023-04-14T22:23:29.642Z,14.07
2023-04-14T22:25:58.266Z,17.08
2023-04-14T22:28:28.027Z,15.68
2023-04-14T22:30:56.112Z,13.23
2023-04-14T22:33:24.181Z,17.63
2023-04-14T22:35:52.248Z,20.90
2023-04-14T22:38:20.289Z,15.27
2023-04-14T22:40:50.401Z,16.25
2023-04-14T22:43:20.322Z,17.63
2023-04-14T22:45:49.830Z,20.70
2023-04-14T22:48:17.960Z,17.98
2023-04-14T22:50:46.105Z,19.70
2023-04-14T22:53:14.116Z,19.67
2023-04-14T22:55:43.470Z,18.23
2023-04-14T22:58:16.350Z,18.50
2023-04-14T23:00:45.212Z,18.50
2023-04-14T23:03:15.586Z,17.63
2023-04-14T23:05:44.706Z,15.73
2023-04-14T23:08:12.806Z,15.73
2023-04-14T23:10:40.824Z,15.43
2023-04-14T23:13:09.401Z,15.52
2023-04-14T23:15:37.446Z,19.38
2023-04-14T23:18:05.614Z,17.63
2023-04-14T23:20:35.190Z,14.98
2023-04-14T23:23:03.542Z,17.30
2023-04-14T23:25:31.619Z,20.17
2023-04-14T23:27:59.598Z,16.73
2023-04-14T23:30:27.685Z,13.93
2023-04-14T23:32:55.740Z,17.40
2023-04-14T23:35:23.988Z,17.83
2023-04-14T23:37:53.443Z,19.65
2023-04-14T23:40:21.657Z,18.50
2023-04-14T23:42:49.907Z,21.57
2023-04-14T23:45:18.064Z,17.67
2023-04-14T23:47:46.447Z,17.10
2023-04-14T23:50:14.557Z,17.30
2023-04-14T23:52:44.036Z,19.70
2023-04-14T23:55:13.456Z,17.90
2023-04-14T23:57:42.082Z,18.60
